Time;durP1;ratioP1;P1;durP2;ratioP2;P2;SDS_P1;SDS_P2;PMS_P1;PMS_P2;Temp;Humidity;BMP_temperature;BMP_pressure;BME280_temperature;BME280_humidity;BME280_pressure;Samples;Min_cycle;Max_cycle;Signal;HPM_P1;HPM_P2
2022/12/25 00:00:08;;;;;;;122.57;32.13;;;6.10;99.90;;;;;;5972023;23;20460;-87
2022/12/25 00:02:34;;;;;;;127.45;32.15;;;6.00;99.90;;;;;;5991300;23;20226;-86
2022/12/25 00:05:01;;;;;;;111.93;31.58;;;6.00;99.90;;;;;;5997782;23;20054;-86
2022/12/25 00:07:27;;;;;;;114.90;32.30;;;6.00;99.90;;;;;;6019981;23;20236;-86
2022/12/25 00:09:53;;;;;;;144.82;35.67;;;6.10;99.90;;;;;;6000051;23;20023;-85
2022/12/25 00:12:19;;;;;;;111.30;31.50;;;6.10;99.90;;;;;;5999720;23;20019;-85
2022/12/25 00:14:45;;;;;;;109.25;31.30;;;6.00;99.90;;;;;;6000078;23;20454;-86
2022/12/25 00:17:11;;;;;;;121.00;30.52;;;6.10;99.90;;;;;;6001184;23;20016;-86
2022/12/25 00:19:37;;;;;;;98.15;28.10;;;6.10;99.90;;;;;;6000381;23;20639;-88
2022/12/25 00:22:02;;;;;;;107.30;28.17;;;6.10;99.90;;;;;;6002134;23;20065;-87
2022/12/25 00:24:28;;;;;;;109.93;28.92;;;6.00;99.90;;;;;;6024848;23;20995;-87
2022/12/25 00:26:53;;;;;;;139.75;30.00;;;6.10;99.90;;;;;;6022777;23;20023;-88
2022/12/25 00:29:23;;;;;;;121.35;28.63;;;5.90;99.90;;;;;;6000218;23;20341;-86
2022/12/25 00:31:48;;;;;;;118.82;26.75;;;5.80;99.90;;;;;;5998031;23;20043;-87
2022/12/25 00:34:14;;;;;;;126.70;29.15;;;5.80;99.90;;;;;;5999824;23;20027;-87
2022/12/25 00:36:40;;;;;;;110.72;26.40;;;6.00;99.90;;;;;;5999213;23;20338;-88
2022/12/25 00:39:06;;;;;;;127.85;28.65;;;6.00;99.90;;;;;;5999899;23;20047;-87
2022/12/25 00:44:18;;;;;;;105.00;27.15;;;5.90;99.90;;;;;;6023008;23;20034;-88
2022/12/25 00:46:44;;;;;;;108.57;28.02;;;5.90;99.90;;;;;;5998512;23;20019;-87
2022/12/25 00:49:10;;;;;;;102.80;28.10;;;5.90;99.90;;;;;;5999118;23;20329;-87
2022/12/25 00:51:36;;;;;;;117.25;27.05;;;6.00;99.90;;;;;;5999967;23;20016;-87
2022/12/25 00:54:02;;;;;;;122.72;28.17;;;6.00;99.90;;;;;;5999647;23;20063;-87
2022/12/25 00:56:28;;;;;;;96.38;26.63;;;6.00;99.90;;;;;;5999061;23;20454;-87
2022/12/25 00:58:54;;;;;;;116.60;29.48;;;6.20;99.90;;;;;;6021945;23;20019;-89
2022/12/25 01:01:20;;;;;;;108.38;27.30;;;6.10;99.90;;;;;;5997488;23;20023;-87
2022/12/25 01:03:45;;;;;;;101.47;26.52;;;6.00;99.90;;;;;;6022162;23;20026;-87
2022/12/25 01:06:12;;;;;;;129.10;27.77;;;6.10;99.90;;;;;;5999469;23;20015;-88
2022/12/25 01:10:20;;;;;;;129.25;30.35;;;6.00;99.90;;;;;;5999653;23;20023;-88
2022/12/25 01:11:25;;;;;;;104.28;27.48;;;6.00;99.90;;;;;;6023477;23;20552;-88
2022/12/25 01:13:51;;;;;;;120.75;28.60;;;5.90;99.90;;;;;;5998351;23;20077;-88
2022/12/25 01:16:17;;;;;;;125.00;28.67;;;5.90;99.90;;;;;;6000142;23;20023;-88
2022/12/25 01:18:43;;;;;;;106.40;28.10;;;6.00;99.90;;;;;;5999383;23;20019;-88
2022/12/25 01:21:11;;;;;;;122.63;29.05;;;6.00;99.90;;;;;;6000920;23;20012;-87
2022/12/25 01:23:37;;;;;;;95.97;28.33;;;6.10;99.90;;;;;;6000771;23;20034;-88
2022/12/25 01:26:04;;;;;;;116.55;31.90;;;6.20;99.90;;;;;;6000605;23;20016;-89
2022/12/25 01:28:30;;;;;;;132.82;32.63;;;6.20;99.90;;;;;;6000803;23;20106;-88
2022/12/25 01:30:56;;;;;;;134.57;32.47;;;6.40;99.90;;;;;;6001274;23;20122;-88
2022/12/25 01:33:21;;;;;;;154.38;34.40;;;6.40;99.90;;;;;;6001192;23;20022;-89
2022/12/25 01:35:47;;;;;;;127.93;33.70;;;6.40;99.90;;;;;;5999780;23;20015;-88
2022/12/25 01:38:13;;;;;;;161.45;36.70;;;6.50;99.90;;;;;;6001162;23;20019;-88
2022/12/25 01:40:39;;;;;;;146.30;35.28;;;6.60;99.90;;;;;;6023880;23;20007;-88
2022/12/25 01:43:31;;;;;;;169.30;37.08;;;6.70;99.90;;;;;;6001504;23;20015;-88
2022/12/25 01:45:57;;;;;;;177.55;38.35;;;6.70;99.90;;;;;;5999752;23;20026;-87
2022/12/25 01:48:32;;;;;;;172.00;36.92;;;6.80;99.90;;;;;;6000095;23;20011;-86
2022/12/25 01:51:00;;;;;;;;;;;6.80;99.90;;;;;;6024668;23;20649;-88
2022/12/25 01:53:26;;;;;;;172.30;36.25;;;6.80;99.90;;;;;;6048080;23;20038;-88
2022/12/25 01:56:00;;;;;;;197.20;39.97;;;6.90;99.90;;;;;;5999477;23;20101;-87
2022/12/25 01:58:27;;;;;;;150.13;34.45;;;7.00;99.90;;;;;;6000397;23;20015;-87
2022/12/25 02:00:53;;;;;;;174.32;38.67;;;7.00;99.90;;;;;;6021576;23;20091;-88
2022/12/25 02:03:20;;;;;;;135.57;34.75;;;7.00;99.90;;;;;;5976978;23;20035;-88
2022/12/25 02:05:46;;;;;;;161.85;36.55;;;7.10;99.90;;;;;;5976576;23;20066;-88
2022/12/25 02:08:14;;;;;;;131.32;33.72;;;7.10;99.90;;;;;;5976613;23;20020;-87
2022/12/25 02:10:43;;;;;;;141.52;36.30;;;7.10;99.90;;;;;;5976012;23;20023;-88
2022/12/25 02:13:14;;;;;;;154.38;36.50;;;7.20;99.90;;;;;;5976092;23;20019;-88
2022/12/25 02:16:00;;;;;;;150.40;36.13;;;7.10;99.90;;;;;;5974980;23;20046;-88
2022/12/25 02:18:47;;;;;;;131.80;35.45;;;7.20;99.90;;;;;;5999663;23;20436;-88
2022/12/25 02:21:22;;;;;;;156.38;38.40;;;7.30;99.90;;;;;;5976466;23;20354;-88
2022/12/25 02:24:22;;;;;;;136.60;37.83;;;7.30;99.90;;;;;;6000053;23;20019;-87
2022/12/25 02:27:13;;;;;;;143.45;36.30;;;7.30;99.90;;;;;;6000699;23;20310;-88
2022/12/25 02:29:47;;;;;;;147.07;35.65;;;7.30;99.90;;;;;;5977321;23;20102;-89
2022/12/25 02:32:17;;;;;;;116.97;33.28;;;7.30;99.90;;;;;;5999957;23;20020;-88
2022/12/25 02:35:06;;;;;;;138.60;35.40;;;7.30;99.90;;;;;;6000023;23;20027;-90
2022/12/25 02:37:51;;;;;;;119.32;34.05;;;7.40;99.90;;;;;;5976339;23;20058;-89
2022/12/25 02:40:30;;;;;;;125.07;34.90;;;7.40;99.90;;;;;;5976354;23;20023;-88
2022/12/25 03:08:28;;;;;;;142.05;34.35;;;7.60;99.90;;;;;;6023159;23;20082;-88
2022/12/25 03:13:51;;;;;;;122.05;33.70;;;7.70;99.90;;;;;;6022025;23;20023;-88
2022/12/25 03:26:53;;;;;;;105.20;32.60;;;7.70;99.90;;;;;;6021501;23;20094;-88
2022/12/25 03:27:17;;;;;;;83.72;28.35;;;7.60;99.90;;;;;;6021918;23;20031;-87
2022/12/25 03:33:05;;;;;;;98.25;29.25;;;7.60;99.90;;;;;;6021670;23;20031;-88
2022/12/25 03:35:44;;;;;;;89.53;28.30;;;7.60;99.90;;;;;;5980264;23;20394;-88
2022/12/25 04:37:14;;;;;;;106.75;31.23;;;8.00;99.90;;;;;;6024420;23;20019;-88
2022/12/25 04:39:39;;;;;;;98.60;30.10;;;8.10;99.90;;;;;;6000956;23;20012;-88
2022/12/25 04:42:05;;;;;;;108.43;31.38;;;8.10;99.90;;;;;;6000172;23;20027;-87
2022/12/25 04:44:31;;;;;;;117.75;31.60;;;8.10;99.90;;;;;;5999416;23;20483;-88
2022/12/25 04:46:56;;;;;;;111.65;31.25;;;8.10;99.90;;;;;;5998126;23;20030;-88
2022/12/25 04:49:22;;;;;;;109.10;29.42;;;8.20;99.90;;;;;;6000907;23;20326;-88
2022/12/25 04:51:47;;;;;;;110.03;30.83;;;8.20;99.90;;;;;;6022509;23;20019;-88
2022/12/25 04:54:13;;;;;;;122.82;30.60;;;8.20;99.90;;;;;;5999198;23;20027;-88
2022/12/25 04:56:39;;;;;;;105.82;29.52;;;8.20;99.90;;;;;;5999398;23;20050;-88
2022/12/25 04:59:05;;;;;;;113.45;30.45;;;8.20;99.90;;;;;;5997799;23;20435;-87
2022/12/25 05:01:31;;;;;;;121.57;31.05;;;8.30;99.90;;;;;;5998530;23;20023;-88
2022/12/25 05:03:56;;;;;;;100.68;28.73;;;8.30;99.90;;;;;;5998757;23;20503;-87
2022/12/25 05:06:22;;;;;;;99.15;29.73;;;8.30;99.90;;;;;;6022807;23;20015;-88
2022/12/25 05:08:48;;;;;;;118.20;31.77;;;8.30;99.90;;;;;;5998858;23;20020;-88
2022/12/25 05:11:14;;;;;;;101.28;29.75;;;8.30;99.90;;;;;;6022065;23;20049;-87
2022/12/25 05:13:41;;;;;;;106.25;30.40;;;8.40;99.90;;;;;;6021582;23;20019;-88
2022/12/25 05:16:09;;;;;;;102.60;29.23;;;8.40;99.90;;;;;;5999611;23;20079;-88
2022/12/25 05:18:38;;;;;;;121.65;30.33;;;8.30;99.90;;;;;;5999599;23;20015;-89
2022/12/25 05:21:04;;;;;;;110.97;30.67;;;8.40;99.90;;;;;;5998683;23;20358;-88
2022/12/25 05:23:30;;;;;;;108.13;31.58;;;8.40;99.90;;;;;;6000015;23;20016;-87
2022/12/25 05:25:56;;;;;;;120.88;32.20;;;8.40;99.90;;;;;;6023344;23;20035;-89
2022/12/25 05:28:21;;;;;;;122.82;31.35;;;8.40;99.90;;;;;;5999983;23;20023;-89
2022/12/25 05:30:47;;;;;;;139.68;34.72;;;8.40;99.90;;;;;;5999138;23;20094;-89
2022/12/25 05:33:13;;;;;;;119.95;31.77;;;8.50;99.90;;;;;;6001423;23;20046;-88
2022/12/25 05:35:42;;;;;;;123.43;31.85;;;8.50;99.90;;;;;;5999723;23;20087;-88
2022/12/25 05:38:07;;;;;;;121.78;31.13;;;8.50;99.90;;;;;;6024161;23;20240;-88
2022/12/25 05:40:37;;;;;;;117.13;32.70;;;8.50;99.90;;;;;;6000058;23;20027;-88
2022/12/25 05:43:02;;;;;;;134.05;34.22;;;8.50;99.90;;;;;;5999771;23;20389;-89
2022/12/25 05:45:28;;;;;;;147.57;35.67;;;8.60;99.90;;;;;;5999543;23;20058;-88
2022/12/25 05:47:53;;;;;;;111.57;32.03;;;8.60;99.90;;;;;;6023289;23;20106;-87
2022/12/25 05:50:21;;;;;;;118.22;32.70;;;8.60;99.90;;;;;;6021936;23;20041;-88
2022/12/25 05:52:47;;;;;;;137.93;35.60;;;8.60;99.90;;;;;;6023126;23;20027;-88
2022/12/25 05:55:13;;;;;;;140.43;34.78;;;8.70;99.90;;;;;;6022668;23;20038;-88
2022/12/25 05:57:38;;;;;;;166.65;38.03;;;8.70;99.90;;;;;;5998924;23;20015;-89
2022/12/25 06:00:05;;;;;;;147.80;35.78;;;8.70;99.90;;;;;;6021490;23;20026;-88
2022/12/25 06:02:31;;;;;;;147.73;36.15;;;8.70;99.90;;;;;;5999189;23;20027;-87
2022/12/25 06:04:56;;;;;;;135.38;36.15;;;8.70;99.90;;;;;;6023403;23;20023;-88
2022/12/25 06:07:22;;;;;;;178.63;38.47;;;8.70;99.90;;;;;;6022255;23;20165;-88
2022/12/25 06:09:48;;;;;;;144.70;38.30;;;8.70;99.90;;;;;;5999819;23;20361;-87
2022/12/25 06:12:13;;;;;;;147.98;35.90;;;8.70;99.90;;;;;;5998551;23;20019;-88
2022/12/25 06:14:39;;;;;;;151.63;37.38;;;8.70;99.90;;;;;;5999131;23;20308;-88
2022/12/25 06:17:05;;;;;;;155.98;36.38;;;8.70;99.90;;;;;;5999060;23;20019;-88
2022/12/25 06:19:30;;;;;;;145.80;36.15;;;8.80;99.90;;;;;;5998651;23;20015;-88
2022/12/25 06:21:56;;;;;;;147.32;35.72;;;8.80;99.90;;;;;;5995271;23;20042;-88
2022/12/25 06:24:22;;;;;;;194.07;39.38;;;8.80;99.90;;;;;;5993483;23;20190;-88
2022/12/25 06:26:48;;;;;;;193.82;39.97;;;8.80;99.90;;;;;;5998137;23;20129;-87
2022/12/25 06:29:14;;;;;;;161.55;38.17;;;8.80;99.90;;;;;;5999407;23;20110;-87
2022/12/25 06:31:40;;;;;;;219.65;42.08;;;8.80;99.90;;;;;;5998080;23;20039;-88
2022/12/25 06:34:06;;;;;;;204.10;43.20;;;8.90;99.90;;;;;;5999360;23;20117;-88
2022/12/25 06:36:31;;;;;;;200.32;39.60;;;8.80;99.90;;;;;;6022274;23;20684;-88
2022/12/25 06:38:59;;;;;;;168.73;40.63;;;8.80;99.90;;;;;;6022838;23;20027;-88
2022/12/25 06:41:27;;;;;;;196.93;40.08;;;8.80;99.90;;;;;;6019833;23;20034;-87
2022/12/25 06:43:55;;;;;;;155.23;37.67;;;8.80;99.90;;;;;;5995570;23;20019;-87
2022/12/25 06:46:22;;;;;;;164.07;38.67;;;8.80;99.90;;;;;;5995002;23;20540;-88
2022/12/25 06:48:48;;;;;;;150.35;38.53;;;8.90;99.90;;;;;;6018260;23;20538;-88
2022/12/25 06:51:19;;;;;;;185.27;39.40;;;8.90;99.90;;;;;;5995865;23;20106;-88
2022/12/25 06:53:46;;;;;;;187.70;39.83;;;8.90;99.90;;;;;;5995646;23;20146;-88
2022/12/25 06:56:18;;;;;;;173.43;38.63;;;8.80;99.90;;;;;;5996184;23;20015;-88
2022/12/25 06:58:49;;;;;;;143.32;35.85;;;8.90;99.90;;;;;;6020414;23;20020;-88
2022/12/25 07:01:27;;;;;;;153.75;37.92;;;8.90;99.90;;;;;;5992867;23;20532;-86
2022/12/25 07:04:11;;;;;;;142.32;36.28;;;8.90;99.90;;;;;;5995360;23;20023;-89
2022/12/25 07:06:36;;;;;;;132.20;34.85;;;8.90;99.90;;;;;;5971334;23;20149;-88
2022/12/25 07:09:05;;;;;;;153.45;37.38;;;8.90;99.90;;;;;;5996703;23;20031;-88
2022/12/25 07:11:31;;;;;;;166.55;37.33;;;8.90;99.90;;;;;;5972879;23;20457;-87
2022/12/25 07:13:56;;;;;;;161.60;38.88;;;8.90;99.90;;;;;;5972405;23;20030;-88
2022/12/25 07:16:22;;;;;;;131.05;34.90;;;8.90;99.90;;;;;;5997259;23;20057;-89
2022/12/25 07:18:48;;;;;;;135.60;35.75;;;8.90;99.90;;;;;;5973418;23;20779;-88
2022/12/25 07:21:16;;;;;;;135.60;36.67;;;8.80;99.90;;;;;;5972838;23;20121;-88
2022/12/25 07:23:44;;;;;;;130.18;35.08;;;8.80;99.90;;;;;;5997106;23;20047;-88
2022/12/25 07:26:11;;;;;;;114.03;34.50;;;8.90;99.90;;;;;;5971426;23;20074;-87
2022/12/25 07:28:37;;;;;;;118.05;33.10;;;8.90;99.90;;;;;;5994950;23;20254;-87
2022/12/25 07:31:05;;;;;;;116.38;33.38;;;8.90;99.90;;;;;;5971286;23;20106;-89
2022/12/25 07:33:32;;;;;;;104.75;32.60;;;8.90;99.90;;;;;;5995048;23;20108;-88
2022/12/25 07:35:57;;;;;;;118.32;34.17;;;8.90;99.90;;;;;;5971735;23;20015;-89
2022/12/25 07:38:23;;;;;;;118.40;34.00;;;8.90;99.90;;;;;;5973158;23;20018;-87
2022/12/25 07:40:49;;;;;;;113.10;33.40;;;9.00;99.90;;;;;;5972757;23;20019;-88
2022/12/25 07:43:15;;;;;;;122.25;34.33;;;9.00;99.90;;;;;;5973361;23;20163;-88
2022/12/25 07:45:40;;;;;;;116.20;34.15;;;9.00;99.90;;;;;;5971802;23;20015;-88
2022/12/25 07:48:06;;;;;;;113.65;33.30;;;9.00;99.90;;;;;;5973194;23;20106;-87
2022/12/25 07:50:32;;;;;;;121.28;35.22;;;9.00;99.90;;;;;;5969800;23;20023;-88
2022/12/25 07:52:57;;;;;;;111.28;32.78;;;9.00;99.90;;;;;;5994338;23;20321;-88
2022/12/25 07:55:26;;;;;;;98.90;30.30;;;9.00;99.90;;;;;;5994806;23;20457;-88
2022/12/25 07:57:52;;;;;;;98.47;31.77;;;9.00;99.90;;;;;;5995903;23;20011;-88
2022/12/25 08:00:18;;;;;;;92.70;30.83;;;9.00;99.90;;;;;;5972487;23;20481;-88
2022/12/25 08:02:44;;;;;;;92.78;30.35;;;9.00;99.90;;;;;;5991709;23;20054;-88
2022/12/25 08:05:10;;;;;;;93.22;31.20;;;9.10;99.90;;;;;;6019343;23;20360;-88
2022/12/25 08:07:35;;;;;;;82.82;29.17;;;9.10;99.90;;;;;;5996433;23;20027;-88
2022/12/25 08:10:02;;;;;;;71.72;28.10;;;9.10;99.90;;;;;;5995661;23;20027;-88
2022/12/25 08:12:28;;;;;;;73.82;27.33;;;9.10;99.90;;;;;;5995467;23;20617;-88
2022/12/25 08:14:54;;;;;;;93.80;29.85;;;9.10;99.90;;;;;;5996583;23;20058;-89
2022/12/25 08:17:19;;;;;;;79.40;27.42;;;9.10;99.90;;;;;;6018860;23;20690;-88
2022/12/25 08:19:45;;;;;;;59.80;24.90;;;9.10;99.90;;;;;;6018739;23;20026;-89
2022/12/25 08:22:11;;;;;;;80.57;26.40;;;9.20;99.90;;;;;;5995640;23;20035;-88
2022/12/25 08:24:37;;;;;;;73.63;25.75;;;9.20;99.90;;;;;;5995769;23;20171;-89
2022/12/25 08:27:02;;;;;;;65.32;24.85;;;9.20;99.90;;;;;;5993783;23;20454;-89
2022/12/25 08:29:28;;;;;;;68.45;24.80;;;9.20;99.90;;;;;;5995226;23;20031;-88
2022/12/25 08:31:54;;;;;;;69.95;26.52;;;9.20;99.90;;;;;;6017636;23;20025;-88
2022/12/25 08:34:23;;;;;;;75.05;25.88;;;9.20;99.90;;;;;;5994040;23;20098;-87
2022/12/25 08:36:49;;;;;;;61.85;26.40;;;9.30;99.90;;;;;;5993942;23;20018;-89
2022/12/25 08:39:14;;;;;;;62.88;24.15;;;9.20;99.90;;;;;;5995493;23;20015;-88
2022/12/25 08:41:40;;;;;;;75.70;26.02;;;9.20;99.90;;;;;;6018919;23;20031;-88
2022/12/25 08:44:06;;;;;;;60.97;23.67;;;9.20;99.90;;;;;;5993382;23;20083;-88
2022/12/25 08:46:35;;;;;;;62.22;23.95;;;9.30;99.90;;;;;;5994233;23;20156;-88
2022/12/25 08:49:01;;;;;;;57.90;23.55;;;9.20;99.90;;;;;;6018446;23;20038;-89
2022/12/25 08:51:26;;;;;;;56.00;23.33;;;9.30;99.90;;;;;;5994872;23;20023;-89
2022/12/25 08:53:57;;;;;;;51.63;21.08;;;9.30;99.90;;;;;;5994346;23;20070;-88
2022/12/25 08:56:22;;;;;;;54.63;21.45;;;9.20;99.90;;;;;;5996978;23;20090;-88
2022/12/25 08:58:48;;;;;;;48.97;21.75;;;9.30;99.90;;;;;;5995857;23;20325;-88
2022/12/25 09:01:14;;;;;;;55.13;20.90;;;9.30;99.90;;;;;;6017540;23;20034;-89
2022/12/25 09:03:42;;;;;;;42.70;20.17;;;9.30;99.90;;;;;;5994855;23;20026;-88
2022/12/25 09:06:10;;;;;;;44.58;19.90;;;9.30;99.90;;;;;;6018391;23;20051;-89
2022/12/25 09:08:37;;;;;;;44.80;20.92;;;9.30;99.90;;;;;;5996434;23;20271;-88
2022/12/25 09:11:04;;;;;;;43.65;20.33;;;9.30;99.90;;;;;;5996115;23;20042;-88
2022/12/25 09:13:31;;;;;;;41.05;20.05;;;9.30;99.90;;;;;;5996116;23;20338;-89
2022/12/25 09:15:56;;;;;;;41.03;19.67;;;9.40;99.90;;;;;;5994079;23;20568;-89
2022/12/25 09:18:22;;;;;;;42.00;19.95;;;9.40;99.90;;;;;;5995522;23;20103;-88
2022/12/25 09:20:57;;;;;;;38.85;18.90;;;9.40;99.90;;;;;;5994493;23;20454;-89
2022/12/25 09:23:23;;;;;;;;;;;9.30;99.90;;;;;;5997115;23;20150;-89
2022/12/25 09:25:48;;;;;;;35.88;17.15;;;9.30;99.90;;;;;;6018430;23;20037;-89
2022/12/25 09:28:14;;;;;;;41.47;18.15;;;9.40;99.90;;;;;;5997940;23;20022;-88
2022/12/25 09:30:39;;;;;;;36.13;17.10;;;9.30;99.90;;;;;;5997448;23;20419;-89
2022/12/25 09:33:05;;;;;;;35.10;16.05;;;9.30;99.90;;;;;;5999441;23;20353;-88
2022/12/25 09:35:31;;;;;;;40.97;17.38;;;9.30;99.90;;;;;;6022084;23;20011;-90
2022/12/25 09:37:57;;;;;;;36.78;16.85;;;9.40;99.90;;;;;;5996975;23;20027;-89
2022/12/25 09:40:30;;;;;;;33.50;15.75;;;9.30;99.90;;;;;;5996861;23;20019;-88
2022/12/25 09:42:57;;;;;;;31.88;15.43;;;9.40;99.90;;;;;;5997547;23;20272;-88
2022/12/25 09:45:35;;;;;;;33.58;14.57;;;9.40;99.90;;;;;;5997346;23;20365;-89
2022/12/25 09:48:01;;;;;;;32.25;14.52;;;9.40;99.90;;;;;;5998069;23;20034;-88
2022/12/25 09:50:50;;;;;;;35.13;15.82;;;9.40;99.90;;;;;;6019488;23;20493;-89
2022/12/25 09:53:25;;;;;;;27.10;14.23;;;9.40;99.90;;;;;;6018431;23;20015;-88
2022/12/25 09:56:09;;;;;;;28.77;13.77;;;9.30;99.90;;;;;;5997142;23;20025;-89
2022/12/25 09:58:35;;;;;;;32.88;14.35;;;9.30;99.90;;;;;;5996869;23;20021;-88
2022/12/25 10:01:37;;;;;;;30.88;15.00;;;9.40;99.90;;;;;;6019530;23;20114;-89
2022/12/25 10:04:44;;;;;;;28.98;13.32;;;9.40;99.90;;;;;;5940397;23;20465;-89
2022/12/25 10:07:24;;;;;;;29.90;13.73;;;9.40;99.90;;;;;;5886033;24;20540;-87
2022/12/25 10:10:10;;;;;;;30.48;13.77;;;9.40;99.90;;;;;;5863381;24;20025;-90
2022/12/25 10:12:48;;;;;;;24.60;12.35;;;9.40;99.90;;;;;;5943527;23;20111;-89
2022/12/25 10:15:32;;;;;;;25.42;12.63;;;9.50;99.90;;;;;;5974638;23;20470;-89
2022/12/25 10:18:22;;;;;;;26.15;11.98;;;9.50;99.90;;;;;;5999848;23;20034;-88
2022/12/25 10:20:51;;;;;;;26.83;12.43;;;9.50;99.90;;;;;;5998148;23;20039;-89
2022/12/25 10:23:34;;;;;;;22.73;11.82;;;9.50;99.90;;;;;;5976710;23;20531;-89
2022/12/25 10:26:01;;;;;;;25.20;12.85;;;9.60;99.90;;;;;;5974331;23;20023;-88
2022/12/25 10:28:38;;;;;;;24.90;12.25;;;9.60;99.90;;;;;;5997779;23;20058;-88
2022/12/25 10:31:21;;;;;;;25.13;12.07;;;9.60;99.90;;;;;;5969851;23;20019;-88
2022/12/25 10:33:52;;;;;;;22.35;11.55;;;9.60;99.90;;;;;;5970478;23;20205;-89
2022/12/25 10:36:26;;;;;;;24.20;11.13;;;9.70;99.90;;;;;;5972646;23;20110;-87
2022/12/25 10:38:52;;;;;;;24.75;12.75;;;9.70;99.90;;;;;;5995165;23;20086;-89
2022/12/25 10:41:36;;;;;;;24.85;12.20;;;9.70;99.90;;;;;;5994989;23;20023;-88
2022/12/25 10:44:18;;;;;;;23.90;12.05;;;9.70;99.90;;;;;;5970507;23;20031;-88
2022/12/25 10:46:53;;;;;;;24.38;11.48;;;9.70;99.90;;;;;;5970672;23;20238;-89
2022/12/25 10:49:21;;;;;;;25.00;11.13;;;9.60;99.90;;;;;;5971087;23;20455;-89
2022/12/25 10:51:47;;;;;;;26.13;14.00;;;9.70;99.90;;;;;;5998355;23;20024;-88
2022/12/25 10:54:26;;;;;;;24.23;11.43;;;9.70;99.90;;;;;;5975322;23;20351;-90
2022/12/25 10:57:08;;;;;;;23.33;12.07;;;9.70;99.90;;;;;;5998199;23;20429;-88
2022/12/25 10:59:42;;;;;;;22.98;12.40;;;9.80;99.90;;;;;;5998245;23;20027;-89
2022/12/25 11:02:35;;;;;;;25.93;12.20;;;9.80;99.90;;;;;;5985404;23;20050;-88
2022/12/25 11:05:06;;;;;;;21.27;10.95;;;9.90;99.90;;;;;;5995209;23;20030;-89
2022/12/25 11:07:45;;;;;;;21.42;11.02;;;9.90;99.90;;;;;;5996692;23;20082;-89
2022/12/25 11:10:36;;;;;;;23.15;13.00;;;9.80;99.90;;;;;;5998291;23;20023;-89
2022/12/25 11:13:05;;;;;;;42.60;23.08;;;9.80;99.90;;;;;;5984509;23;20034;-88
2022/12/25 11:15:39;;;;;;;23.92;13.68;;;9.80;99.90;;;;;;5997808;23;20024;-89
2022/12/25 11:18:18;;;;;;;20.45;12.23;;;9.80;99.90;;;;;;5998165;23;20059;-88
2022/12/25 11:20:52;;;;;;;23.35;13.23;;;9.80;99.90;;;;;;5997899;23;20022;-89
2022/12/25 11:23:20;;;;;;;24.00;13.43;;;9.90;99.90;;;;;;6021568;23;20029;-90
2022/12/25 11:26:01;;;;;;;18.52;10.88;;;9.80;99.90;;;;;;6021435;23;20325;-88
2022/12/25 11:28:29;;;;;;;19.63;11.15;;;9.80;99.90;;;;;;5998062;23;20023;-88
2022/12/25 11:31:00;;;;;;;21.10;12.30;;;9.80;99.90;;;;;;5997426;23;20055;-88
2022/12/25 11:33:33;;;;;;;19.75;10.98;;;9.80;99.90;;;;;;5998710;23;20093;-89
2022/12/25 11:36:06;;;;;;;19.60;11.02;;;9.90;99.90;;;;;;5998059;23;20031;-89
2022/12/25 11:38:32;;;;;;;18.90;10.30;;;9.80;99.90;;;;;;6021202;23;20019;-88
2022/12/25 11:41:02;;;;;;;15.50;9.20;;;9.80;99.90;;;;;;5998751;23;20130;-89
2022/12/25 11:43:58;;;;;;;17.88;9.95;;;9.80;99.90;;;;;;5999019;23;20406;-88
2022/12/25 11:46:32;;;;;;;20.60;9.45;;;9.80;99.90;;;;;;5998209;23;20019;-89
2022/12/25 11:49:05;;;;;;;17.47;9.77;;;9.90;99.90;;;;;;6023709;23;20018;-90
2022/12/25 11:51:37;;;;;;;18.55;8.77;;;9.80;99.90;;;;;;6047090;23;20019;-88
2022/12/25 11:54:25;;;;;;;12.35;7.88;;;9.80;99.90;;;;;;6045190;23;20015;-88
2022/12/25 11:56:51;;;;;;;15.30;8.75;;;9.80;99.90;;;;;;6045128;23;20086;-89
2022/12/25 11:59:30;;;;;;;17.08;9.50;;;9.70;99.90;;;;;;6020842;23;20019;-90
2022/12/25 12:02:22;;;;;;;17.20;9.80;;;9.70;99.90;;;;;;5987381;23;20027;-89
2022/12/25 12:05:00;;;;;;;14.38;9.50;;;9.70;99.90;;;;;;5973507;23;20363;-88
2022/12/25 12:07:29;;;;;;;16.40;9.95;;;9.70;99.90;;;;;;5974184;23;20030;-89
2022/12/25 12:10:20;;;;;;;22.42;10.15;;;9.70;99.90;;;;;;5974915;23;20034;-89
2022/12/25 12:13:05;;;;;;;18.50;9.43;;;9.70;99.90;;;;;;5974971;23;20106;-87
2022/12/25 12:15:45;;;;;;;17.70;9.38;;;9.70;99.90;;;;;;5998571;23;20879;-88
2022/12/25 12:18:27;;;;;;;15.02;9.18;;;9.70;99.90;;;;;;5974633;23;20098;-88
2022/12/25 12:20:59;;;;;;;18.23;10.00;;;9.70;99.90;;;;;;5976096;23;20020;-88
2022/12/25 12:23:26;;;;;;;22.00;9.80;;;9.70;99.90;;;;;;5976512;23;20011;-89
2022/12/25 12:25:52;;;;;;;17.15;10.32;;;9.70;99.90;;;;;;6046072;23;20444;-88
2022/12/25 12:28:25;;;;;;;22.20;13.65;;;9.70;99.90;;;;;;6000881;23;20166;-89
2022/12/25 12:31:02;;;;;;;15.32;9.60;;;9.70;99.90;;;;;;5975357;23;20026;-89
2022/12/25 12:33:33;;;;;;;17.75;9.55;;;9.60;99.90;;;;;;5999429;23;20046;-89
2022/12/25 12:36:00;;;;;;;20.33;9.32;;;9.70;99.90;;;;;;5978244;23;20034;-88
2022/12/25 12:38:26;;;;;;;16.17;9.57;;;9.70;99.90;;;;;;5975708;23;20105;-89
2022/12/25 12:40:56;;;;;;;22.75;12.73;;;9.70;99.90;;;;;;5975091;23;20015;-88
2022/12/25 12:43:44;;;;;;;16.35;10.85;;;9.70;99.90;;;;;;5975695;23;20015;-88
2022/12/25 12:46:15;;;;;;;16.10;10.85;;;9.70;99.90;;;;;;5998653;23;20454;-89
2022/12/25 12:48:44;;;;;;;18.05;11.95;;;9.70;99.90;;;;;;5997756;23;20457;-89
2022/12/25 12:51:12;;;;;;;17.35;10.38;;;9.70;99.90;;;;;;5974842;23;20128;-88
2022/12/25 12:53:40;;;;;;;17.10;9.63;;;9.70;99.90;;;;;;6001274;23;20015;-88
2022/12/25 12:56:18;;;;;;;17.00;10.43;;;9.70;99.90;;;;;;5976241;23;20359;-88
2022/12/25 12:58:49;;;;;;;18.70;10.25;;;9.70;99.90;;;;;;5975697;23;20363;-89
2022/12/25 13:01:25;;;;;;;15.52;9.80;;;9.80;99.90;;;;;;5978505;23;20019;-88
2022/12/25 13:04:21;;;;;;;16.20;9.35;;;9.80;99.90;;;;;;6023968;23;20078;-87
2022/12/25 13:07:08;;;;;;;18.63;11.88;;;9.80;99.90;;;;;;6022678;23;20150;-88
2022/12/25 13:09:52;;;;;;;20.67;12.98;;;9.80;99.90;;;;;;6022409;23;20345;-87
2022/12/25 13:12:20;;;;;;;20.10;13.23;;;9.80;99.90;;;;;;6022594;23;20027;-89
2022/12/25 13:14:47;;;;;;;23.08;14.30;;;9.80;99.90;;;;;;5997667;23;20019;-89
2022/12/25 13:17:18;;;;;;;22.95;12.75;;;9.80;99.90;;;;;;5998404;23;20030;-87
2022/12/25 13:19:45;;;;;;;18.25;11.52;;;9.80;99.90;;;;;;5998195;23;20475;-90
2022/12/25 13:22:35;;;;;;;25.42;12.27;;;9.80;99.90;;;;;;5997790;23;20022;-88
2022/12/25 13:25:04;;;;;;;23.45;12.95;;;9.80;99.90;;;;;;5998775;23;20023;-89
2022/12/25 13:27:32;;;;;;;21.35;13.43;;;9.80;99.90;;;;;;6023806;23;20074;-90
2022/12/25 13:29:58;;;;;;;23.15;13.80;;;9.80;99.90;;;;;;6021163;23;20030;-89
2022/12/25 13:32:27;;;;;;;22.42;13.60;;;9.70;99.90;;;;;;6021659;23;20098;-90
2022/12/25 13:34:54;;;;;;;29.25;15.18;;;9.80;99.90;;;;;;6020638;23;20115;-89
2022/12/25 13:37:22;;;;;;;30.45;15.70;;;9.80;99.90;;;;;;5998381;23;20015;-88
2022/12/25 13:40:00;;;;;;;31.95;17.02;;;9.80;99.90;;;;;;6022577;23;20023;-90
2022/12/25 13:42:35;;;;;;;32.20;19.85;;;9.70;99.90;;;;;;5998846;23;20042;-90
2022/12/25 13:45:07;;;;;;;35.22;18.45;;;9.70;99.90;;;;;;5998094;23;20078;-89
2022/12/25 13:47:42;;;;;;;30.45;20.20;;;9.70;99.90;;;;;;5998390;23;20022;-88
2022/12/25 13:50:21;;;;;;;;;;;9.70;99.90;;;;;;5999124;23;20019;-88
2022/12/25 13:52:47;;;;;;;37.38;21.10;;;9.60;99.90;;;;;;6042836;23;19925;-89
2022/12/25 13:55:17;;;;;;;36.83;20.92;;;9.60;99.90;;;;;;5993775;23;20518;-89
2022/12/25 13:57:49;;;;;;;35.95;22.30;;;9.60;99.90;;;;;;5996709;23;20019;-89
2022/12/25 14:00:21;;;;;;;37.58;21.88;;;9.70;99.90;;;;;;5995215;23;20015;-88
2022/12/25 14:02:47;;;;;;;41.15;21.95;;;9.60;99.90;;;;;;5996317;23;20030;-88
2022/12/25 14:05:30;;;;;;;34.53;21.48;;;9.60;99.90;;;;;;5995987;23;20584;-88
2022/12/25 14:07:58;;;;;;;45.30;21.35;;;9.60;99.90;;;;;;5996835;23;20106;-89
2022/12/25 14:10:27;;;;;;;38.70;21.38;;;9.70;99.90;;;;;;5996741;23;20023;-89
2022/12/25 14:12:55;;;;;;;37.53;21.35;;;9.60;99.90;;;;;;5996236;23;20089;-89
2022/12/25 14:15:22;;;;;;;36.70;21.02;;;9.60;99.90;;;;;;5995697;23;20397;-89
2022/12/25 14:17:50;;;;;;;34.75;20.08;;;9.60;99.90;;;;;;5996441;23;20350;-88
2022/12/25 14:20:29;;;;;;;34.50;20.92;;;9.60;99.90;;;;;;5996163;23;20355;-88
2022/12/25 14:22:58;;;;;;;32.88;19.90;;;9.60;99.90;;;;;;5996782;23;20019;-87
2022/12/25 14:25:34;;;;;;;38.83;20.98;;;9.60;99.90;;;;;;5996383;23;20023;-89
2022/12/25 14:28:05;;;;;;;34.00;20.30;;;9.60;99.90;;;;;;5997323;23;20023;-89
2022/12/25 14:30:32;;;;;;;38.25;21.80;;;9.60;99.90;;;;;;5996036;23;20109;-89